Time;durP1;ratioP1;P1;durP2;ratioP2;P2;SDS_P1;SDS_P2;PMS_P1;PMS_P2;Temp;Humidity;BMP_temperature;BMP_pressure;BME280_temperature;BME280_humidity;BME280_pressure;Samples;Min_cycle;Max_cycle;Signal;HPM_P1;HPM_P2
2022/10/25 00:01:51;;;;;;;1.30;1.10;;;15.90;55.40;;;;;;4990071;28;20439;-76
2022/10/25 00:04:17;;;;;;;1.60;1.40;;;15.80;55.80;;;;;;4992300;28;20527;-76
2022/10/25 00:06:42;;;;;;;1.30;1.20;;;15.80;55.90;;;;;;5007625;28;20214;-75
2022/10/25 00:09:08;;;;;;;1.30;1.10;;;15.80;55.70;;;;;;4991144;28;20448;-77
2022/10/25 00:11:34;;;;;;;1.30;1.10;;;15.70;56.00;;;;;;4991147;28;20194;-76
2022/10/25 00:14:03;;;;;;;1.30;1.10;;;15.60;56.00;;;;;;4991683;28;20535;-76
2022/10/25 00:16:35;;;;;;;1.50;1.40;;;15.60;56.30;;;;;;4991052;28;20228;-76
2022/10/25 00:19:01;;;;;;;1.30;1.13;;;15.60;55.80;;;;;;4990786;28;20443;-75
2022/10/25 00:21:27;;;;;;;1.30;1.10;;;15.60;56.50;;;;;;4991985;28;20499;-76
2022/10/25 00:23:52;;;;;;;1.30;1.17;;;15.60;56.20;;;;;;4991819;28;20187;-76
2022/10/25 00:26:19;;;;;;;2.07;1.30;;;15.60;56.60;;;;;;4992032;28;20211;-77
2022/10/25 00:28:44;;;;;;;1.43;1.37;;;15.60;56.00;;;;;;4991425;28;20643;-76
2022/10/25 00:31:13;;;;;;;1.30;1.13;;;13.40;53.40;;;;;;4990614;28;20445;-76
2022/10/25 00:33:40;;;;;;;1.30;1.17;;;15.60;55.40;;;;;;4991809;28;20715;-76
2022/10/25 00:36:21;;;;;;;1.30;1.20;;;15.70;55.00;;;;;;4991838;28;20462;-76
2022/10/25 00:38:47;;;;;;;1.40;1.20;;;15.70;54.60;;;;;;4991915;28;20948;-76
2022/10/25 00:41:18;;;;;;;1.40;1.30;;;15.60;55.80;;;;;;4989883;28;20650;-76
2022/10/25 00:43:52;;;;;;;1.30;1.20;;;15.50;56.40;;;;;;4991448;28;20470;-76
2022/10/25 00:46:24;;;;;;;1.40;1.30;;;15.30;58.30;;;;;;4992280;28;20452;-76
2022/10/25 00:48:53;;;;;;;1.30;1.13;;;15.40;57.40;;;;;;4992105;28;20425;-76
2022/10/25 00:51:23;;;;;;;1.30;1.20;;;15.30;57.90;;;;;;4993339;28;20805;-77
2022/10/25 00:53:49;;;;;;;1.30;1.20;;;15.10;59.20;;;;;;4997353;28;20430;-77
2022/10/25 00:56:21;;;;;;;1.30;1.10;;;15.30;58.30;;;;;;4998607;28;20496;-75
2022/10/25 00:58:54;;;;;;;1.30;1.30;;;15.40;57.90;;;;;;4993286;28;20444;-76
2022/10/25 01:01:21;;;;;;;1.30;1.10;;;15.50;56.80;;;;;;4988676;28;20514;-75
2022/10/25 01:03:50;;;;;;;1.40;1.40;;;15.30;57.40;;;;;;4990390;28;20924;-76
2022/10/25 01:06:40;;;;;;;1.40;1.27;;;15.40;56.00;;;;;;4991517;28;20453;-76
2022/10/25 01:09:09;;;;;;;1.50;1.20;;;15.60;55.40;;;;;;4991025;28;20843;-76
2022/10/25 01:11:36;;;;;;;1.30;1.20;;;15.50;56.40;;;;;;4989070;28;20428;-76
2022/10/25 01:14:03;;;;;;;1.43;1.27;;;15.50;55.60;;;;;;4988763;28;20808;-75
2022/10/25 01:16:51;;;;;;;1.30;1.20;;;15.60;58.10;;;;;;4991194;28;20944;-75
2022/10/25 01:19:16;;;;;;;1.30;1.13;;;15.70;56.30;;;;;;5006271;28;20800;-75
2022/10/25 01:22:07;;;;;;;1.30;1.30;;;15.80;54.80;;;;;;4991562;28;20422;-77
2022/10/25 01:25:03;;;;;;;1.30;1.10;;;15.20;59.30;;;;;;4981984;28;20186;-76
2022/10/25 01:28:06;;;;;;;1.30;1.20;;;15.20;59.50;;;;;;4978947;28;20505;-76
2022/10/25 01:31:09;;;;;;;1.30;1.10;;;15.40;58.80;;;;;;5006199;28;20945;-77
2022/10/25 01:33:53;;;;;;;1.60;1.20;;;15.60;57.20;;;;;;4986116;28;20436;-76
2022/10/25 01:36:48;;;;;;;1.30;1.10;;;15.70;55.70;;;;;;4993210;28;20883;-77
2022/10/25 01:39:23;;;;;;;1.30;1.30;;;15.80;54.90;;;;;;4989031;28;20439;-75
2022/10/25 01:41:58;;;;;;;1.50;1.40;;;15.90;54.10;;;;;;4994365;28;20448;-76
2022/10/25 01:44:26;;;;;;;1.43;1.30;;;15.90;54.10;;;;;;4993802;28;20940;-77
2022/10/25 01:47:00;;;;;;;1.30;1.20;;;15.80;54.00;;;;;;4994152;28;20465;-77
2022/10/25 01:49:35;;;;;;;1.30;1.20;;;15.80;54.70;;;;;;4994825;28;20487;-75
2022/10/25 01:52:02;;;;;;;1.30;1.20;;;15.80;54.00;;;;;;4994076;28;20476;-77
2022/10/25 01:54:28;;;;;;;1.30;1.20;;;15.80;53.60;;;;;;4992498;28;20433;-77
2022/10/25 01:57:20;;;;;;;1.30;1.20;;;15.90;53.90;;;;;;4993138;28;20967;-76
2022/10/25 02:00:03;;;;;;;1.30;1.20;;;15.50;53.60;;;;;;4989289;28;20253;-75
2022/10/25 02:02:51;;;;;;;1.30;1.30;;;15.40;53.40;;;;;;4992043;28;20448;-76
2022/10/25 02:05:22;;;;;;;1.30;1.20;;;15.20;54.00;;;;;;4994656;28;20504;-77
2022/10/25 02:07:58;;;;;;;1.30;1.20;;;15.30;53.50;;;;;;4993098;28;20823;-76
2022/10/25 02:10:35;;;;;;;1.30;1.10;;;15.30;54.20;;;;;;4994494;28;20862;-76
2022/10/25 02:13:11;;;;;;;1.30;1.30;;;15.40;53.60;;;;;;4993093;28;20432;-76
2022/10/25 02:15:52;;;;;;;1.40;1.30;;;15.50;52.80;;;;;;4992487;28;20475;-77
2022/10/25 02:18:22;;;;;;;1.30;1.10;;;15.40;53.60;;;;;;4993880;28;20433;-76
2022/10/25 02:20:51;;;;;;;1.60;1.43;;;15.50;53.00;;;;;;4994307;28;20417;-76
2022/10/25 02:23:19;;;;;;;1.30;1.10;;;15.40;53.20;;;;;;4994065;28;20492;-77
2022/10/25 02:25:46;;;;;;;1.30;1.20;;;15.20;53.40;;;;;;4993341;28;20456;-76
2022/10/25 02:28:14;;;;;;;1.30;1.10;;;15.40;54.00;;;;;;4993004;28;20460;-76
2022/10/25 02:30:43;;;;;;;1.60;1.30;;;15.30;53.50;;;;;;4994230;28;20526;-76
2022/10/25 02:33:09;;;;;;;1.30;1.10;;;15.40;52.90;;;;;;4993935;28;20437;-76
2022/10/25 02:35:35;;;;;;;1.40;1.20;;;15.30;53.30;;;;;;4993868;28;20569;-75
2022/10/25 02:38:02;;;;;;;1.40;1.40;;;15.20;53.40;;;;;;4992993;28;20459;-76
2022/10/25 02:40:28;;;;;;;1.50;1.17;;;15.20;53.40;;;;;;4994052;28;20433;-77
2022/10/25 02:42:53;;;;;;;1.30;1.00;;;15.00;54.20;;;;;;4993784;28;20469;-76
2022/10/25 02:45:19;;;;;;;1.30;1.10;;;15.00;53.80;;;;;;4993267;28;20506;-76
2022/10/25 02:47:44;;;;;;;1.30;1.30;;;15.10;53.40;;;;;;4992300;28;20186;-76
2022/10/25 02:50:11;;;;;;;1.30;1.17;;;15.10;53.30;;;;;;4993939;28;20182;-76
2022/10/25 02:52:36;;;;;;;1.30;1.20;;;15.20;53.40;;;;;;4993566;28;20195;-75
2022/10/25 02:55:02;;;;;;;1.87;1.60;;;15.00;54.10;;;;;;4993560;28;20429;-77
2022/10/25 02:57:35;;;;;;;1.30;1.20;;;15.00;54.00;;;;;;4992136;28;20201;-76
2022/10/25 03:00:03;;;;;;;1.30;1.30;;;15.00;54.30;;;;;;4993529;28;20413;-75
2022/10/25 03:02:29;;;;;;;1.30;1.20;;;15.00;54.50;;;;;;4993503;28;20798;-76
2022/10/25 03:04:54;;;;;;;1.30;1.10;;;15.10;54.20;;;;;;4993426;28;20425;-76
2022/10/25 03:07:20;;;;;;;1.50;1.23;;;15.00;53.40;;;;;;4991586;28;20273;-76
2022/10/25 03:09:45;;;;;;;1.50;1.20;;;14.90;54.10;;;;;;4992345;28;20178;-76
2022/10/25 03:12:11;;;;;;;1.60;1.50;;;14.90;53.40;;;;;;4993202;28;20687;-76
2022/10/25 03:14:36;;;;;;;1.30;1.10;;;15.40;53.40;;;;;;4992226;28;20245;-76
2022/10/25 03:17:02;;;;;;;1.30;1.10;;;15.00;53.20;;;;;;5011348;23;20221;-69
2022/10/25 03:19:28;;;;;;;1.30;1.10;;;14.80;54.30;;;;;;5014801;28;20208;-70
2022/10/25 03:21:53;;;;;;;1.30;1.10;;;14.90;54.20;;;;;;5000611;28;20174;-70
2022/10/25 03:24:19;;;;;;;1.30;1.20;;;14.90;53.10;;;;;;5001087;28;20815;-70
2022/10/25 03:26:44;;;;;;;1.30;1.30;;;14.90;53.20;;;;;;4993458;28;20213;-69
2022/10/25 03:29:10;;;;;;;2.43;1.43;;;14.90;53.10;;;;;;4994630;28;20188;-69
2022/10/25 03:31:35;;;;;;;1.30;1.20;;;14.90;51.60;;;;;;4998798;28;20545;-70
2022/10/25 03:34:01;;;;;;;1.30;1.17;;;14.90;52.00;;;;;;4992121;28;20252;-71
2022/10/25 03:36:27;;;;;;;1.50;1.20;;;14.90;51.50;;;;;;4992759;28;20213;-69
2022/10/25 03:38:52;;;;;;;2.30;1.40;;;14.80;51.80;;;;;;4992689;28;20221;-70
2022/10/25 03:41:18;;;;;;;1.40;1.20;;;14.70;52.60;;;;;;4993304;28;20297;-69
2022/10/25 03:43:43;;;;;;;1.30;1.10;;;14.70;52.90;;;;;;4991138;28;20855;-71
2022/10/25 03:46:09;;;;;;;1.90;1.50;;;14.70;52.90;;;;;;4992364;28;20221;-71
2022/10/25 03:48:35;;;;;;;1.30;1.07;;;14.80;53.90;;;;;;4992569;28;20185;-69
2022/10/25 03:51:00;;;;;;;1.30;1.20;;;15.10;52.70;;;;;;4991885;28;20269;-69
2022/10/25 03:53:26;;;;;;;1.30;1.20;;;14.80;53.00;;;;;;4992572;28;20182;-70
2022/10/25 03:55:51;;;;;;;1.60;1.33;;;14.90;52.50;;;;;;4990791;28;20193;-69
2022/10/25 03:58:18;;;;;;;1.30;1.20;;;14.80;53.10;;;;;;4993886;28;20174;-69
2022/10/25 04:00:44;;;;;;;1.30;1.10;;;14.70;52.90;;;;;;4991806;28;20265;-70
2022/10/25 04:03:10;;;;;;;2.80;1.43;;;14.70;52.90;;;;;;4991849;28;20512;-69
2022/10/25 04:05:35;;;;;;;1.30;1.20;;;14.60;52.80;;;;;;4989231;28;20628;-70
2022/10/25 04:08:01;;;;;;;3.20;1.40;;;14.50;52.80;;;;;;4991750;28;20214;-70
2022/10/25 04:10:26;;;;;;;1.80;1.40;;;14.80;53.00;;;;;;4990314;28;20193;-70
2022/10/25 04:12:52;;;;;;;1.47;1.30;;;14.80;52.60;;;;;;4992067;28;20244;-69
2022/10/25 04:15:18;;;;;;;1.60;1.47;;;14.60;52.90;;;;;;4989260;28;20177;-70
2022/10/25 04:17:47;;;;;;;1.30;1.10;;;14.50;52.20;;;;;;4991379;28;20234;-69
2022/10/25 04:20:12;;;;;;;1.67;1.33;;;14.50;51.60;;;;;;4992323;28;20425;-69
2022/10/25 04:22:38;;;;;;;1.30;1.10;;;14.50;52.30;;;;;;4991750;28;20431;-70
2022/10/25 04:25:04;;;;;;;1.30;1.10;;;14.60;52.80;;;;;;4991930;28;20181;-70
2022/10/25 04:27:29;;;;;;;1.30;1.23;;;14.40;52.70;;;;;;4990298;28;20209;-69
2022/10/25 04:29:55;;;;;;;1.30;1.20;;;14.40;51.70;;;;;;4991917;28;20428;-70
2022/10/25 04:32:21;;;;;;;1.30;1.20;;;14.80;51.70;;;;;;4992059;28;20649;-69
2022/10/25 04:34:46;;;;;;;1.30;1.20;;;14.50;51.60;;;;;;4990756;28;20205;-70
2022/10/25 04:37:12;;;;;;;1.30;1.10;;;14.60;51.90;;;;;;4990414;28;20209;-69
2022/10/25 04:39:38;;;;;;;1.40;1.27;;;14.50;52.40;;;;;;4991934;28;20553;-69
2022/10/25 04:42:03;;;;;;;2.33;1.50;;;14.50;52.60;;;;;;4991902;28;20180;-71
2022/10/25 04:44:29;;;;;;;1.30;1.17;;;14.40;51.60;;;;;;4990177;28;20236;-69
2022/10/25 04:46:54;;;;;;;1.30;1.10;;;14.40;52.70;;;;;;4991671;28;20213;-69
2022/10/25 04:49:20;;;;;;;1.60;1.50;;;14.30;52.60;;;;;;4989038;28;20204;-70
2022/10/25 04:51:46;;;;;;;2.27;1.60;;;14.30;53.50;;;;;;4995355;28;20213;-70
2022/10/25 04:54:12;;;;;;;1.30;1.20;;;14.30;52.60;;;;;;4992647;28;20676;-70
2022/10/25 04:56:38;;;;;;;1.97;1.50;;;14.30;52.60;;;;;;4991551;28;20994;-70
2022/10/25 04:59:04;;;;;;;1.30;1.20;;;14.40;52.70;;;;;;4992397;28;20681;-69
2022/10/25 05:01:29;;;;;;;2.07;1.60;;;14.70;52.90;;;;;;5000421;28;20437;-71
2022/10/25 05:03:55;;;;;;;1.40;1.30;;;14.60;51.90;;;;;;4991454;28;20420;-69
2022/10/25 05:06:24;;;;;;;1.73;1.30;;;14.20;52.60;;;;;;4987808;28;20209;-69
2022/10/25 05:08:51;;;;;;;1.30;1.13;;;14.30;52.30;;;;;;4990978;28;20196;-69
2022/10/25 05:11:19;;;;;;;1.30;1.23;;;14.30;52.00;;;;;;4995440;28;20435;-69
2022/10/25 05:13:45;;;;;;;1.30;1.23;;;14.40;52.70;;;;;;4985243;28;20528;-69
2022/10/25 05:16:21;;;;;;;1.50;1.20;;;14.40;53.50;;;;;;4986796;28;20623;-70
2022/10/25 05:18:53;;;;;;;1.30;1.13;;;14.30;52.00;;;;;;4991684;28;20633;-69
2022/10/25 05:21:19;;;;;;;3.57;2.33;;;14.30;51.70;;;;;;4989112;28;20437;-72
2022/10/25 05:23:45;;;;;;;1.30;1.10;;;14.40;52.70;;;;;;4985581;28;20519;-70
2022/10/25 05:26:16;;;;;;;1.60;1.40;;;14.50;51.90;;;;;;4987641;28;20536;-71
2022/10/25 05:28:44;;;;;;;1.30;1.20;;;14.80;53.00;;;;;;4987168;28;20441;-69
2022/10/25 05:31:16;;;;;;;1.30;1.20;;;14.50;52.20;;;;;;4983825;28;20476;-69
2022/10/25 05:33:45;;;;;;;2.03;1.47;;;14.40;52.60;;;;;;4987705;28;20441;-69
2022/10/25 05:36:12;;;;;;;1.60;1.40;;;14.40;51.20;;;;;;4983009;28;20469;-69
2022/10/25 05:38:38;;;;;;;1.30;1.20;;;14.40;52.20;;;;;;4984632;28;20527;-72
2022/10/25 05:41:11;;;;;;;1.30;1.13;;;14.30;52.10;;;;;;5001440;28;20445;-80
2022/10/25 05:43:36;;;;;;;1.30;1.20;;;14.20;52.40;;;;;;5004055;28;20405;-80
2022/10/25 05:46:12;;;;;;;1.30;1.20;;;14.30;52.60;;;;;;5015143;28;20487;-79
2022/10/25 05:48:38;;;;;;;1.57;1.50;;;14.30;52.90;;;;;;4983059;28;20268;-80
2022/10/25 05:51:14;;;;;;;1.50;1.40;;;14.20;52.50;;;;;;4990742;28;20479;-80
2022/10/25 05:53:50;;;;;;;1.40;1.40;;;14.20;52.50;;;;;;4991580;28;20432;-81
2022/10/25 05:56:17;;;;;;;1.43;1.33;;;14.00;52.30;;;;;;4991009;28;20844;-79
2022/10/25 05:58:43;;;;;;;1.50;1.50;;;14.00;53.70;;;;;;4991034;28;20448;-73
2022/10/25 06:01:11;;;;;;;1.40;1.30;;;13.60;55.60;;;;;;4988091;28;20436;-71
2022/10/25 06:03:37;;;;;;;1.30;1.30;;;13.70;55.20;;;;;;4986173;28;20205;-73
2022/10/25 06:06:05;;;;;;;1.30;1.20;;;13.80;54.30;;;;;;4987089;28;20441;-71
2022/10/25 06:08:31;;;;;;;2.33;1.60;;;13.80;54.50;;;;;;4990617;28;20556;-71
2022/10/25 06:11:05;;;;;;;1.50;1.30;;;13.90;52.30;;;;;;4989297;28;20433;-71
2022/10/25 06:13:32;;;;;;;1.40;1.30;;;14.10;52.40;;;;;;4991276;28;20467;-71
2022/10/25 06:15:57;;;;;;;1.30;1.13;;;14.00;51.60;;;;;;4995300;28;20527;-71
2022/10/25 06:18:23;;;;;;;1.70;1.47;;;13.90;52.20;;;;;;4993194;28;20441;-72
2022/10/25 06:20:49;;;;;;;1.30;1.30;;;14.10;52.30;;;;;;4990340;28;20189;-71
2022/10/25 06:23:14;;;;;;;2.33;1.50;;;14.20;52.70;;;;;;4989782;28;20185;-72
2022/10/25 06:25:40;;;;;;;1.40;1.30;;;14.30;52.60;;;;;;4992843;28;20448;-72
2022/10/25 06:28:08;;;;;;;1.40;1.30;;;14.40;52.70;;;;;;4994089;28;20205;-74
2022/10/25 06:30:34;;;;;;;1.57;1.50;;;14.30;52.60;;;;;;4988461;28;20183;-74
2022/10/25 06:32:59;;;;;;;1.90;1.50;;;14.30;53.20;;;;;;4989985;28;20440;-71
2022/10/25 06:35:25;;;;;;;1.40;1.30;;;14.40;53.20;;;;;;4991262;28;20429;-72
2022/10/25 06:37:51;;;;;;;1.30;1.20;;;14.50;52.70;;;;;;4993426;28;20206;-71
2022/10/25 06:40:16;;;;;;;1.50;1.40;;;14.40;52.70;;;;;;4994105;28;20178;-72
2022/10/25 06:42:42;;;;;;;1.50;1.50;;;14.50;52.80;;;;;;4990063;28;20225;-72
2022/10/25 06:45:08;;;;;;;1.50;1.30;;;14.50;52.80;;;;;;4988347;28;20189;-72
2022/10/25 06:47:33;;;;;;;2.23;1.37;;;14.40;52.70;;;;;;4988143;28;20229;-71
2022/10/25 06:49:59;;;;;;;1.40;1.40;;;14.50;53.10;;;;;;4987397;28;20975;-72
2022/10/25 06:52:26;;;;;;;1.40;1.30;;;14.50;52.80;;;;;;4991864;28;20189;-72
2022/10/25 06:54:52;;;;;;;1.40;1.30;;;14.50;52.80;;;;;;4994769;28;20693;-72
2022/10/25 06:57:17;;;;;;;1.40;1.40;;;14.60;52.80;;;;;;4993028;28;20492;-72
2022/10/25 06:59:44;;;;;;;1.30;1.20;;;14.70;53.00;;;;;;4989172;28;20182;-73
2022/10/25 07:02:10;;;;;;;1.67;1.50;;;14.80;52.40;;;;;;4988169;28;20325;-72
2022/10/25 07:04:35;;;;;;;3.70;1.93;;;14.90;52.20;;;;;;4989996;28;20531;-73
2022/10/25 07:07:01;;;;;;;1.40;1.30;;;14.80;53.10;;;;;;4990644;28;20209;-73
2022/10/25 07:09:28;;;;;;;1.40;1.30;;;14.80;53.10;;;;;;4992305;28;20186;-73
2022/10/25 07:11:53;;;;;;;2.23;1.53;;;14.90;53.10;;;;;;4991217;28;20265;-74
2022/10/25 07:14:19;;;;;;;1.80;1.33;;;14.90;53.90;;;;;;4993328;28;20656;-73
2022/10/25 07:16:45;;;;;;;1.87;1.47;;;14.90;53.10;;;;;;4992796;28;20255;-73
2022/10/25 07:19:10;;;;;;;1.30;1.30;;;15.10;53.00;;;;;;4988471;28;20179;-72
2022/10/25 07:21:36;;;;;;;1.50;1.50;;;15.20;53.40;;;;;;4991175;28;20182;-72
2022/10/25 07:24:02;;;;;;;1.67;1.50;;;14.90;53.10;;;;;;4990084;28;20201;-72
2022/10/25 07:26:33;;;;;;;1.40;1.30;;;15.00;54.20;;;;;;4990194;28;20198;-73
2022/10/25 07:29:00;;;;;;;1.90;1.40;;;15.00;55.30;;;;;;4990484;28;20181;-72
2022/10/25 07:31:34;;;;;;;1.40;1.40;;;15.10;54.70;;;;;;4991191;28;20488;-72
2022/10/25 07:34:02;;;;;;;1.30;1.20;;;15.10;54.30;;;;;;4990928;28;20433;-72
2022/10/25 07:36:28;;;;;;;1.30;1.10;;;15.10;55.20;;;;;;4986191;28;20983;-72
2022/10/25 07:38:55;;;;;;;1.77;1.50;;;15.30;54.50;;;;;;4988433;28;20496;-72
2022/10/25 07:41:22;;;;;;;1.77;1.47;;;15.30;54.20;;;;;;4990668;28;20182;-72
2022/10/25 07:43:47;;;;;;;1.40;1.17;;;15.40;54.30;;;;;;4992116;28;20429;-73
2022/10/25 07:46:13;;;;;;;1.70;1.60;;;15.50;53.70;;;;;;4989890;28;20461;-73
2022/10/25 07:48:38;;;;;;;1.40;1.30;;;15.00;55.50;;;;;;4992070;28;20642;-73
2022/10/25 07:51:06;;;;;;;4.43;2.07;;;14.70;57.80;;;;;;4992399;28;20176;-73
2022/10/25 07:53:32;;;;;;;1.47;1.40;;;14.60;59.30;;;;;;4990397;28;20266;-73
2022/10/25 07:55:58;;;;;;;2.20;1.67;;;14.90;58.00;;;;;;4988233;28;20577;-72
2022/10/25 07:58:23;;;;;;;1.30;1.30;;;15.20;56.30;;;;;;4987830;28;20446;-73
2022/10/25 08:00:49;;;;;;;1.50;1.30;;;15.20;55.80;;;;;;4991096;28;20191;-72
2022/10/25 08:03:16;;;;;;;2.03;1.30;;;15.00;57.10;;;;;;4988337;28;20189;-75
2022/10/25 08:05:46;;;;;;;1.30;1.30;;;14.80;58.70;;;;;;4989314;28;20209;-73
2022/10/25 08:08:13;;;;;;;1.97;1.40;;;15.00;57.80;;;;;;4986638;28;20509;-73
2022/10/25 08:10:41;;;;;;;1.97;1.57;;;15.00;58.80;;;;;;4988750;28;21120;-71
2022/10/25 08:13:07;;;;;;;1.30;1.20;;;15.10;58.30;;;;;;4991117;28;20502;-71
2022/10/25 08:15:35;;;;;;;2.70;1.70;;;15.40;57.00;;;;;;4989601;28;20443;-71
2022/10/25 08:18:02;;;;;;;1.47;1.27;;;15.60;55.20;;;;;;4989231;28;20225;-71
2022/10/25 08:20:28;;;;;;;1.70;1.53;;;15.90;57.00;;;;;;4989029;28;20443;-73
2022/10/25 08:22:58;;;;;;;1.47;1.37;;;15.70;55.00;;;;;;4990410;28;20938;-74
2022/10/25 08:25:24;;;;;;;1.30;1.20;;;15.50;57.40;;;;;;4988788;28;20443;-73
2022/10/25 08:27:49;;;;;;;1.60;1.43;;;15.90;55.60;;;;;;4988742;28;20455;-74
2022/10/25 08:30:15;;;;;;;1.53;1.30;;;16.30;54.40;;;;;;4986931;28;20432;-75
2022/10/25 08:32:41;;;;;;;1.63;1.60;;;16.40;54.10;;;;;;4988670;28;20216;-73
2022/10/25 08:35:07;;;;;;;1.80;1.57;;;16.70;52.30;;;;;;4987523;28;20190;-75
2022/10/25 08:37:32;;;;;;;1.33;1.13;;;16.80;52.30;;;;;;4987900;28;20213;-73
2022/10/25 08:39:58;;;;;;;2.23;1.40;;;16.90;51.20;;;;;;4989966;28;20185;-73
2022/10/25 08:43:04;;;;;;;1.50;1.37;;;16.90;51.10;;;;;;4990130;28;20506;-74
2022/10/25 08:45:51;;;;;;;1.30;1.30;;;17.00;51.00;;;;;;4991453;28;20185;-73
2022/10/25 08:48:21;;;;;;;1.70;1.50;;;17.30;51.00;;;;;;4991434;28;20423;-71
2022/10/25 08:50:51;;;;;;;1.30;1.20;;;17.30;51.00;;;;;;4990457;28;20479;-71
2022/10/25 08:53:22;;;;;;;1.97;1.47;;;17.50;50.80;;;;;;4991425;28;20478;-71
2022/10/25 08:55:49;;;;;;;1.40;1.40;;;17.20;48.60;;;;;;4991374;28;20543;-71
2022/10/25 08:58:35;;;;;;;1.30;1.20;;;17.20;50.60;;;;;;4991315;28;20417;-71
2022/10/25 09:01:11;;;;;;;1.30;1.30;;;17.10;49.40;;;;;;4991029;28;20434;-71
2022/10/25 09:03:39;;;;;;;1.40;1.37;;;16.90;51.30;;;;;;4984048;28;20924;-71
2022/10/25 09:06:32;;;;;;;3.30;2.00;;;17.20;50.10;;;;;;4991243;28;20417;-71
2022/10/25 09:09:21;;;;;;;2.07;1.83;;;17.20;50.50;;;;;;4991608;28;20409;-71
2022/10/25 09:12:07;;;;;;;1.60;1.30;;;17.30;50.80;;;;;;4983325;28;21019;-71
2022/10/25 09:14:48;;;;;;;1.90;1.60;;;17.10;52.20;;;;;;4992203;28;20441;-71
2022/10/25 09:17:19;;;;;;;1.53;1.53;;;17.00;52.80;;;;;;4992680;28;20468;-71
2022/10/25 09:20:06;;;;;;;1.97;1.77;;;17.50;50.60;;;;;;4993567;28;20434;-71
2022/10/25 09:22:41;;;;;;;1.63;1.57;;;17.40;51.60;;;;;;4990955;28;20426;-71
2022/10/25 09:25:18;;;;;;;1.40;1.20;;;17.60;48.10;;;;;;4991061;28;20429;-73
2022/10/25 09:28:07;;;;;;;1.80;1.47;;;17.90;48.70;;;;;;4991315;28;20961;-71
2022/10/25 09:30:40;;;;;;;2.43;1.73;;;18.20;48.50;;;;;;4991958;28;20440;-71
2022/10/25 09:33:10;;;;;;;1.70;1.30;;;18.60;48.90;;;;;;4992292;28;20429;-71
2022/10/25 09:35:54;;;;;;;1.40;1.33;;;18.80;48.50;;;;;;4990994;28;20460;-71
2022/10/25 09:38:27;;;;;;;1.50;1.40;;;18.60;47.60;;;;;;4990898;28;20421;-72
2022/10/25 09:41:01;;;;;;;1.50;1.40;;;18.70;47.70;;;;;;4991720;28;20458;-71
2022/10/25 09:43:37;;;;;;;2.03;1.70;;;18.70;46.90;;;;;;4996218;28;20829;-71
2022/10/25 09:46:12;;;;;;;1.50;1.30;;;18.70;48.40;;;;;;4991093;28;20525;-71
2022/10/25 09:49:01;;;;;;;1.43;1.37;;;18.90;47.70;;;;;;4991944;28;20523;-71
2022/10/25 09:51:45;;;;;;;1.30;1.20;;;19.30;46.80;;;;;;4995532;28;20439;-71
2022/10/25 09:54:26;;;;;;;1.70;1.50;;;19.70;43.70;;;;;;4999106;28;20420;-71
2022/10/25 09:56:52;;;;;;;1.60;1.50;;;19.60;44.70;;;;;;4987562;28;20466;-71
2022/10/25 09:59:18;;;;;;;2.03;1.47;;;19.80;45.00;;;;;;4994605;28;20421;-74
2022/10/25 10:01:43;;;;;;;1.30;1.20;;;19.90;44.50;;;;;;4989174;28;20186;-73
2022/10/25 10:04:35;;;;;;;1.37;1.37;;;20.10;44.00;;;;;;4992834;28;20216;-71
2022/10/25 10:07:08;;;;;;;1.30;1.17;;;20.10;43.30;;;;;;4990615;28;20599;-71
2022/10/25 10:09:35;;;;;;;2.47;1.60;;;20.20;40.70;;;;;;4992465;28;20922;-72
2022/10/25 10:12:04;;;;;;;1.40;1.33;;;20.30;41.50;;;;;;4993438;28;20438;-72
2022/10/25 10:14:40;;;;;;;1.37;1.33;;;20.30;40.80;;;;;;4997627;28;20435;-72
2022/10/25 10:17:12;;;;;;;1.50;1.30;;;20.50;41.20;;;;;;4997188;28;20886;-74
2022/10/25 10:19:39;;;;;;;1.77;1.50;;;20.50;41.60;;;;;;4994512;28;20436;-71
2022/10/25 10:22:14;;;;;;;1.30;1.20;;;20.70;41.00;;;;;;5008620;28;21008;-71
2022/10/25 10:24:45;;;;;;;1.30;1.30;;;20.50;39.50;;;;;;4998838;28;20440;-71
2022/10/25 10:27:20;;;;;;;1.40;1.20;;;20.50;38.60;;;;;;4997656;28;20449;-71
2022/10/25 10:30:20;;;;;;;1.70;1.33;;;20.70;39.70;;;;;;4993889;28;20461;-71
2022/10/25 10:32:46;;;;;;;1.30;1.20;;;20.50;40.50;;;;;;4989820;28;20448;-71
2022/10/25 10:35:35;;;;;;;1.30;1.30;;;20.70;40.20;;;;;;4999983;28;20450;-71
2022/10/25 10:38:21;;;;;;;1.90;1.37;;;21.40;37.30;;;;;;5002671;28;20530;-72
2022/10/25 10:40:48;;;;;;;1.30;1.27;;;21.80;36.20;;;;;;4989949;28;20429;-71
2022/10/25 10:43:27;;;;;;;1.40;1.20;;;21.70;37.20;;;;;;5003486;28;20451;-73
2022/10/25 10:45:59;;;;;;;1.43;1.43;;;21.20;40.20;;;;;;4994176;28;20436;-71
2022/10/25 10:48:26;;;;;;;1.50;1.40;;;20.80;39.30;;;;;;4993654;28;20500;-71
2022/10/25 10:50:52;;;;;;;1.30;1.20;;;20.50;40.90;;;;;;4992586;28;20468;-71
2022/10/25 10:53:28;;;;;;;1.43;1.30;;;21.00;40.80;;;;;;5003716;28;20445;-72
2022/10/25 10:55:58;;;;;;;1.30;1.30;;;21.80;39.30;;;;;;4996147;28;20233;-71
2022/10/25 10:58:34;;;;;;;1.30;1.20;;;22.00;39.50;;;;;;4990111;28;20442;-72
2022/10/25 11:01:09;;;;;;;1.30;1.10;;;22.30;38.30;;;;;;4991588;28;20548;-71
2022/10/25 11:03:40;;;;;;;1.30;1.30;;;22.40;35.40;;;;;;4994227;28;20426;-71
2022/10/25 11:06:26;;;;;;;1.30;1.30;;;22.30;34.90;;;;;;4990418;28;20466;-72
2022/10/25 11:09:21;;;;;;;1.30;1.13;;;22.20;36.50;;;;;;4996849;28;20437;-72
2022/10/25 11:12:09;;;;;;;1.30;1.30;;;22.70;36.10;;;;;;4990708;28;20427;-71
2022/10/25 11:14:35;;;;;;;2.73;1.40;;;22.50;33.60;;;;;;4983439;28;20483;-71
2022/10/25 11:17:26;;;;;;;1.30;1.20;;;22.80;33.50;;;;;;4991692;28;20901;-73
2022/10/25 11:20:20;;;;;;;1.60;1.40;;;22.90;32.40;;;;;;4991232;28;20524;-71
2022/10/25 11:23:07;;;;;;;1.30;1.20;;;23.40;31.40;;;;;;4985950;28;20963;-72
2022/10/25 11:25:59;;;;;;;2.37;1.57;;;22.30;33.30;;;;;;4992284;28;20451;-77
2022/10/25 11:28:43;;;;;;;1.30;1.20;;;21.70;34.50;;;;;;4993092;28;20403;-71
2022/10/25 11:31:22;;;;;;;1.50;1.40;;;21.60;34.80;;;;;;4990308;28;20427;-71
2022/10/25 11:34:06;;;;;;;1.43;1.37;;;22.00;33.20;;;;;;4989131;28;20463;-71
2022/10/25 11:36:44;;;;;;;1.30;1.13;;;21.50;31.00;;;;;;4985625;28;20842;-71
2022/10/25 11:39:21;;;;;;;2.90;1.70;;;21.60;31.00;;;;;;4992675;28;20514;-71
2022/10/25 11:41:52;;;;;;;1.33;1.30;;;21.60;29.40;;;;;;4990676;28;20432;-72
2022/10/25 11:44:36;;;;;;;1.30;1.30;;;22.30;29.00;;;;;;4990884;28;20813;-71
2022/10/25 11:47:17;;;;;;;1.40;1.27;;;22.00;28.70;;;;;;4991789;28;20432;-71
2022/10/25 11:49:45;;;;;;;1.30;1.13;;;21.50;30.40;;;;;;4991124;28;20434;-74
2022/10/25 11:52:17;;;;;;;1.30;1.10;;;22.00;30.50;;;;;;4989974;28;20440;-72
2022/10/25 11:55:11;;;;;;;1.30;1.30;;;21.90;29.80;;;;;;4990443;28;20441;-71
2022/10/25 11:57:49;;;;;;;1.30;1.20;;;21.80;29.10;;;;;;5001170;28;20477;-70
2022/10/25 12:00:37;;;;;;;1.40;1.40;;;21.80;29.50;;;;;;4988705;28;20484;-72
2022/10/25 12:03:49;;;;;;;1.43;1.40;;;22.40;28.10;;;;;;4990429;28;20482;-73
2022/10/25 12:06:27;;;;;;;1.30;1.20;;;22.90;28.00;;;;;;4950583;28;20908;-74
2022/10/25 12:09:02;;;;;;;1.50;1.20;;;22.40;28.00;;;;;;4952377;28;21053;-72
2022/10/25 12:11:32;;;;;;;1.30;1.23;;;22.50;27.30;;;;;;4946209;28;20447;-74
2022/10/25 12:14:04;;;;;;;1.50;1.40;;;22.80;27.00;;;;;;4950502;28;20528;-73
2022/10/25 12:16:32;;;;;;;1.30;1.20;;;23.10;26.80;;;;;;4951884;28;20470;-73
2022/10/25 12:19:18;;;;;;;2.10;1.50;;;22.90;25.50;;;;;;4950366;29;20442;-72
2022/10/25 12:22:00;;;;;;;1.30;1.20;;;21.80;27.30;;;;;;4949810;28;20455;-74
2022/10/25 12:24:40;;;;;;;1.30;1.20;;;21.90;28.10;;;;;;4948841;28;20489;-73
2022/10/25 12:27:07;;;;;;;1.30;1.20;;;22.40;27.70;;;;;;4952399;28;20536;-72
2022/10/25 12:29:43;;;;;;;1.30;1.20;;;22.30;26.40;;;;;;4950563;29;20439;-73
2022/10/25 12:32:41;;;;;;;2.13;1.77;;;21.30;28.00;;;;;;4951175;28;20445;-72
2022/10/25 12:35:22;;;;;;;1.40;1.30;;;21.90;27.30;;;;;;4923955;28;20824;-72
2022/10/25 12:38:06;;;;;;;1.30;1.27;;;22.00;26.30;;;;;;4985772;28;20475;-72
2022/10/25 12:40:39;;;;;;;1.30;1.10;;;21.40;28.00;;;;;;4990054;28;20425;-73
2022/10/25 12:43:14;;;;;;;1.30;1.20;;;21.20;27.60;;;;;;4988355;28;20464;-72
2022/10/25 12:46:28;;;;;;;1.30;1.20;;;21.50;27.90;;;;;;4990855;28;21035;-71
2022/10/25 12:49:18;;;;;;;1.30;1.10;;;21.50;27.40;;;;;;4909901;29;20455;-72
2022/10/25 12:51:54;;;;;;;1.30;1.23;;;21.60;27.90;;;;;;4920086;29;20556;-72
2022/10/25 12:54:44;;;;;;;1.30;1.10;;;21.60;26.40;;;;;;4918561;29;20417;-72
2022/10/25 12:57:10;;;;;;;1.30;1.20;;;21.60;27.10;;;;;;4920665;29;20481;-72
2022/10/25 12:59:41;;;;;;;1.30;1.20;;;21.40;27.00;;;;;;4914363;29;20442;-72
2022/10/25 13:02:31;;;;;;;1.30;1.20;;;21.90;26.80;;;;;;4918741;29;20179;-72
2022/10/25 13:05:15;;;;;;;1.30;1.20;;;22.20;26.40;;;;;;4904541;29;20974;-72
2022/10/25 13:07:41;;;;;;;1.30;1.10;;;22.30;26.80;;;;;;4922654;29;20466;-73
2022/10/25 13:10:17;;;;;;;1.30;1.23;;;22.30;26.60;;;;;;4907653;29;20846;-72
2022/10/25 13:12:57;;;;;;;2.30;1.30;;;21.90;26.10;;;;;;4909511;29;20453;-73